mercredi 28 mai 2014

ALERTE SPOTTING 28/05/14 (05h00)



320 F-GHQE Air Corsica (blanc avec titre)
    XK4501/XK4500  07h35/08h30

E95 Air Europa EC-LFZ (sticker)
   dpt UX1022  07h10
   UX1025/UX1026   19h20/20h10


Manque les prévisions de certains AB/AH/AZ/BA/BE/IB/KM/TP/TU

*** Horaires en Heure Locale ***
Prévisions matinales soumises à modifications de dernières minutes.

Voir le log du mois pour la version 'définitive' de la journée: 
 http://www.airkalo.com/ORLYAVIATION/Logdumois.html

le TAF de la journée:


METAR: LFPO 280230Z 24006KT 9999 BKN010 BKN050 12/10 Q1013 TEMPO
BKN010=
TAF LONG: LFPO 272300Z 2800/2906 26007KT 9999 SCT012 BKN060 BECMG 2800/2803
BKN010 TEMPO 2804/2810 4500 -RA BKN008 BECMG 2810/2812 BKN025 TEMPO
2811/2818 8000 SHRA SCT025CB BKN030 PROB30 TEMPO 2813/2816 25015KT
3000 -TSRA BECMG 2818/2821 BKN015 TEMPO 2818/2906 3000 -RA BKN010=

dimanche 18 mai 2014

Mai 2014 : Visite du 777 VP-CAL

Du 16 au 18 mai 2014, le Boeing 777 VP-CAL (777-2KQ/LR, numéro de série 40753/891) d'Aviation Link (Arabie Saoudite) a rendu visite à Orly pour un mini sommet africain. Il a transporté le président du Cameroun dont on aperçoit les petits drapeaux près des portes passagers avant.
(c) AIRKALO.COM / 17-18/05/14 ORY

* * * * * * * *
Tout sur l'aéroport d'Orly : (c) Airkalo.com

ALERTE SPOTTING 18/05/14 (MàJ 05h00)


319 G-EZBR easyJet (sticker '100 Airbus')
     U24242/U24243  09h30/10h00
  U24248/U24249  19h55/20h30

E90 F-HBLI Hop
    AF7543/AF393Y   09h45/10h15

E95 EC-LFZ Air Europa  (sticker)
    UX1223/UX1020  10h45/11h35
  arv UX1002 22h25

320 F-GHQE Air Corsica (blanc avec titre)
   XK4503/XK4502  11h50/12h55
  XK4505/XK4504  20h15/21h20

IL9 CU-T1250 Cubana
   CU444/CU445  13h00/15h00

73H TC-AZP Pegasus (sticker 'Asia')
   PC401/PC402  13h15/14h05

73H TC-AVP Pegasus (sticker 'Asia')
   PC873/PC874  17h40/18h30

Manque les prévisions de certains AB/AH/AZ/BA/BE/IB/KM/TP/TU

*** Horaires en Heure Locale ***
Prévisions matinales soumises à modifications de dernières minutes.

Voir le log du mois pour la version 'définitive' de la journée: 
 http://www.airkalo.com/ORLYAVIATION/Logdumois.html

le TAF de la journée:

METAR: LFPO 180230Z 35002KT CAVOK 11/07 Q1016 NOSIG=
TAF LONG: LFPO 172300Z 1800/1906 02005KT CAVOK BECMG 1806/1809 10007KT= 

samedi 17 mai 2014

LES COMPAGNIES AÉRIENNES : Les chiffres mensuels (MàJ 08/07/14)

Les chiffres des compagnies aériennes
dernière Mise à Jour : 13/05/14


AEROPORTS DE PARIS :

Mars 2014: + 2,8% de passagers (2,3 millions) à Orly par rapport à Mars 2013.
Janvier 2014: + 6,2% de passagers (2 millions) à Orly par rapport à Janvier 2013.

AIR CARAIBES :

Année 2013: + 5% de chiffre d'affaires (353 millions), +2% de passagers transportés (1 224 000), +6% de taux de remplissage (86%) par rapport à 2012.

AIR FRANCE-KLM :

Mai 2014: + 2,5% de passagers transportés (6,7 millions), +1,6% de taux de remplissage (83,4%).
Avril 2014: + 3% de passagers transportés (6,7 millions), +1,9% de taux de remplissage (84,7%) par rapport à Avril 2013.
Mars 2014: + 0,3% de passagers transportés (6,3 millions) par rapport à Mars 2013.
Février 2014: + 1,8% de passagers transportés (5,3 millions), +1,4% de taux de remplissage (81,9%) par rapport à Février 2013.

EASYJET :

Juin 2014: + 10,1% de passagers transportés (6 098 364), 92% de taux de templissage par rapport à Juin 2013.
Avril 2014: + 10,2% de passagers transportés (5 787 833), +3,1% de taux de remplissage (89,8%) par rapport à Mai 2013.
Mars 2014: + 4,8% de passagers transportés (5 101 676), +1% de taux de remplissage (91,5%) par rapport à Mars 2013.
Février 2014: + 2,9% de passagers transportés (4 232 325), taux de remplissage 90,7% par rapport à Février 2013.

IAG (British Airways, Iberia) :

Année 2013: (+)770 millions d'euros de bénéfices.
Année 2012: (-)23 millions d'euros de pertes.

TRANSAVIA :

Mai 2014: + 36,5% de passagers transportés (294 848), +6,9% de taux de remplissage (90,8%) par rapport à Mai 2013.
Avril 2014: + 57,3% de passagers transportés (214 106), +4,6% de taux de remplissage (90,6%) par rapport à Avril 2013.
Février 2014: + 47% de passagers transportés (106 861), +2,2% de taux de remplissage (87,1%) par rapport à Février 2013.
Janvier 2014: + 41% de passagers transportés (111 735), +4,2% de taux de remplissage (80,5%) par rapport à Janvier 2013.

TUNISAIR :

Février 2014: + 10,9% de passagers transportés (215 888) par rapport à Février 2013.


* * * * * * * *
Tout sur l'aéroport d'Orly : (c) Airkalo.com

ALERTE SPOTTING 17/05/14


752 G-ZAPX Titan Airways
   TO905/TO3142  08h00/08h45
 TO3143/TO906  14h25/15h10

73H I-NEOU Neos
  dpt TO902  10h25

763 CS-TFS Euro Atlantic Airways
   AT764/AT765  16h15/17h30

319 G-EZIO easyJet (couleur Unicef)
   U24072/U24071  20h30/21h00

Manque les prévisions de certains AB / AH / AZ / BA / BE / IB / KM / TP / TU
*** Heures en Local Time **
Prévisions matinales soumises à modifications de dernières minute.
 Voir le log du mois pour la version 'définitive' de la journée: 
 http://www.airkalo.com/ORLYAVIATION/Logdumois.html

le TAF de la journée:

METAR: LFPO 170300Z 01007KT CAVOK 10/05 Q1024 NOSIG=
TAF LONG: LFPO 162300Z 1700/1806 03008KT CAVOK=

vendredi 16 mai 2014

ALERTE SPOTTING 16/05/14

320 F-GHQE Air Corsica (blanc avec titre)
   XK4511/XK4516  07h35/08h25

73H D-ABMU Air Berlin (winglet gauche TUI jaune)
 AB8154/AB8155 07h55/08h45

319 G-EZBR eazyJet (sticker '100 Airbus')
   U24242/U24243 09h05/09h35

73H I-NEOS Neos
   TO901/TO3314  16h00/16h50
 TO3315/TO902 22h10/23h00

Manque les prévisions de certains AB / AH / AZ / BA / BE / IB / KM / TP / TU
*** Heures en Local Time **
Prévisions matinales soumises à modifications de dernières minute.
 Voir le log du mois pour la version 'définitive' de la journée: 
 http://www.airkalo.com/ORLYAVIATION/Logdumois.html

le TAF de la journée:


METAR: LFPO 160300Z 05007KT CAVOK 07/04 Q1032 NOSIG=
TAF LONG: LFPO 152300Z 1600/1706 03010KT CAVOK TEMPO 1609/1613 FEW030=